createdAt,value
2023-05-11T00:01:43.077Z,8.70
2023-05-11T00:04:12.587Z,8.70
2023-05-11T00:06:43.694Z,8.60
2023-05-11T00:09:12.992Z,8.60
2023-05-11T00:11:42.885Z,8.60
2023-05-11T00:14:12.232Z,8.60
2023-05-11T00:16:42.064Z,8.60
2023-05-11T00:19:11.304Z,8.60
2023-05-11T00:21:41.676Z,8.60
2023-05-11T00:24:12.621Z,8.60
2023-05-11T00:26:43.053Z,8.60
2023-05-11T00:29:12.343Z,8.50
2023-05-11T00:31:42.094Z,8.60
2023-05-11T00:34:11.370Z,8.60
2023-05-11T00:36:42.789Z,8.50
2023-05-11T00:39:14.025Z,8.50
2023-05-11T00:41:43.643Z,8.50
2023-05-11T00:44:13.114Z,8.40
2023-05-11T00:46:43.190Z,8.30
2023-05-11T00:49:12.967Z,8.20
2023-05-11T00:51:43.962Z,8.20
2023-05-11T00:54:15.691Z,8.10
2023-05-11T00:56:45.652Z,8.00
2023-05-11T00:59:14.943Z,8.00
2023-05-11T01:01:45.509Z,7.90
2023-05-11T01:04:15.453Z,7.80
2023-05-11T01:06:53.192Z,7.80
2023-05-11T01:09:37.851Z,7.90
2023-05-11T01:12:15.991Z,7.80
2023-05-11T01:14:51.344Z,7.70
2023-05-11T01:17:32.335Z,7.70
2023-05-11T01:20:08.851Z,7.70
2023-05-11T01:22:50.789Z,7.70
2023-05-11T01:25:34.492Z,7.60
2023-05-11T01:28:27.896Z,7.50
2023-05-11T01:31:01.645Z,7.50
2023-05-11T01:33:35.385Z,7.40
2023-05-11T01:36:07.803Z,7.30
2023-05-11T01:38:41.793Z,7.40
2023-05-11T01:41:16.192Z,7.30
2023-05-11T01:43:48.997Z,7.30
2023-05-11T01:46:21.099Z,7.30
2023-05-11T01:48:54.472Z,7.30
2023-05-11T01:51:25.439Z,7.20
2023-05-11T01:53:56.531Z,7.20
2023-05-11T01:56:28.662Z,7.20
2023-05-11T01:58:59.737Z,7.20
2023-05-11T02:01:32.576Z,7.20
2023-05-11T02:04:05.223Z,7.10
2023-05-11T02:06:36.103Z,7.10
2023-05-11T02:09:07.230Z,7.10
2023-05-11T02:11:38.576Z,7.00
2023-05-11T02:14:09.383Z,7.00
2023-05-11T02:16:41.258Z,7.00
2023-05-11T02:19:12.058Z,7.00
2023-05-11T02:21:44.059Z,6.90
2023-05-11T02:24:14.103Z,6.80
2023-05-11T02:26:43.444Z,6.90
2023-05-11T02:29:13.071Z,6.80
2023-05-11T02:31:47.969Z,6.80
2023-05-11T02:34:28.308Z,6.70
2023-05-11T02:37:02.692Z,6.70
2023-05-11T02:39:36.749Z,6.60
2023-05-11T02:42:14.394Z,6.60
2023-05-11T02:44:52.291Z,6.60
2023-05-11T02:47:24.240Z,6.60
2023-05-11T02:49:56.966Z,6.60
2023-05-11T02:52:28.736Z,6.60
2023-05-11T02:55:00.659Z,6.60
2023-05-11T02:57:29.996Z,6.60
2023-05-11T03:00:00.574Z,6.60
2023-05-11T03:02:31.450Z,6.50
2023-05-11T03:05:01.806Z,6.50
2023-05-11T03:07:31.068Z,6.50
2023-05-11T03:10:01.346Z,6.60
2023-05-11T03:12:33.542Z,6.60
2023-05-11T03:15:05.411Z,6.70
2023-05-11T03:17:37.403Z,6.70
2023-05-11T03:20:10.313Z,6.80
2023-05-11T03:22:40.100Z,6.80
2023-05-11T03:25:11.550Z,6.80
2023-05-11T03:27:42.764Z,6.90
2023-05-11T03:30:15.718Z,6.90
2023-05-11T03:32:46.740Z,6.90
2023-05-11T03:35:16.624Z,6.90
2023-05-11T03:37:47.467Z,7.00
2023-05-11T03:40:17.939Z,7.00
2023-05-11T03:42:48.481Z,7.10
2023-05-11T03:45:21.327Z,7.10
2023-05-11T03:47:53.806Z,7.30
2023-05-11T03:50:23.821Z,7.30
2023-05-11T03:52:53.792Z,7.40
2023-05-11T03:55:24.471Z,7.60
2023-05-11T03:57:54.512Z,7.60
2023-05-11T04:00:24.698Z,7.90
2023-05-11T04:02:56.835Z,7.90
2023-05-11T04:05:26.530Z,8.00
2023-05-11T04:07:55.771Z,8.00
2023-05-11T04:10:26.696Z,8.20
2023-05-11T04:12:56.342Z,8.20
2023-05-11T04:15:26.501Z,8.30
2023-05-11T04:17:57.979Z,8.40
2023-05-11T04:20:27.685Z,8.60
2023-05-11T04:22:56.977Z,8.60
2023-05-11T04:25:27.742Z,8.80
2023-05-11T04:27:57.128Z,8.80
2023-05-11T04:30:27.188Z,8.90
2023-05-11T04:32:58.329Z,9.00
2023-05-11T04:35:29.323Z,9.30
2023-05-11T04:37:58.699Z,9.30
2023-05-11T04:40:28.463Z,9.30
2023-05-11T04:42:58.067Z,9.60
2023-05-11T04:45:27.672Z,9.70
2023-05-11T04:47:58.652Z,9.80
2023-05-11T04:50:28.479Z,9.80
2023-05-11T04:52:58.006Z,9.90
2023-05-11T04:55:27.764Z,10.10
2023-05-11T04:57:57.007Z,10.10
2023-05-11T05:00:26.968Z,10.20
2023-05-11T05:02:57.751Z,10.30
2023-05-11T05:05:27.735Z,10.30
2023-05-11T05:07:57.287Z,10.60
2023-05-11T05:10:26.915Z,10.70
2023-05-11T05:12:56.270Z,10.70
2023-05-11T05:15:26.449Z,10.90
2023-05-11T05:17:55.740Z,10.90
2023-05-11T05:20:26.814Z,11.00
2023-05-11T05:22:56.527Z,11.20
2023-05-11T05:25:26.214Z,11.10
2023-05-11T05:27:55.711Z,11.20
2023-05-11T05:30:25.500Z,11.20
2023-05-11T05:32:55.434Z,11.20
2023-05-11T05:35:26.889Z,11.40
2023-05-11T05:37:56.433Z,11.50
2023-05-11T05:40:26.312Z,11.40
2023-05-11T05:42:56.209Z,11.40
2023-05-11T05:45:26.272Z,11.30
2023-05-11T05:47:55.843Z,11.20
2023-05-11T05:50:26.877Z,11.20
2023-05-11T05:52:56.267Z,11.20
2023-05-11T05:55:26.116Z,11.30
2023-05-11T05:57:55.331Z,11.20
2023-05-11T06:00:25.054Z,11.40
2023-05-11T06:02:54.653Z,11.50
2023-05-11T06:05:26.194Z,11.60
2023-05-11T06:08:09.319Z,11.60
2023-05-11T06:10:41.143Z,11.70
2023-05-11T06:13:10.775Z,11.80
2023-05-11T06:15:43.156Z,11.90
2023-05-11T06:18:13.155Z,11.90
2023-05-11T06:20:44.292Z,12.00
2023-05-11T06:23:13.765Z,12.00
2023-05-11T06:25:43.375Z,12.20
2023-05-11T06:28:12.658Z,12.30
2023-05-11T06:30:42.296Z,12.30
2023-05-11T06:33:11.563Z,12.30
2023-05-11T06:35:41.336Z,12.40
2023-05-11T06:38:12.163Z,12.50
2023-05-11T06:40:41.809Z,12.50
2023-05-11T06:43:11.029Z,12.70
2023-05-11T06:45:42.078Z,12.80
2023-05-11T06:48:11.364Z,12.80
2023-05-11T06:50:41.057Z,12.80
2023-05-11T06:53:11.807Z,12.90
2023-05-11T06:55:41.763Z,13.00
2023-05-11T06:58:11.242Z,13.30
2023-05-11T07:00:41.309Z,13.30
2023-05-11T07:03:10.677Z,13.40
2023-05-11T07:05:40.609Z,13.60
2023-05-11T07:08:11.285Z,13.70
2023-05-11T07:10:42.102Z,13.70
2023-05-11T07:13:11.424Z,13.70
2023-05-11T07:15:41.170Z,13.70
2023-05-11T07:18:10.641Z,13.80
2023-05-11T07:20:41.137Z,14.00
2023-05-11T07:23:11.964Z,14.00
2023-05-11T07:25:41.551Z,14.20
2023-05-11T07:28:10.995Z,14.30
2023-05-11T07:30:40.716Z,14.50
2023-05-11T07:33:10.290Z,14.50
2023-05-11T07:35:40.096Z,14.50
2023-05-11T07:38:12.335Z,14.70
2023-05-11T07:40:42.043Z,14.80
2023-05-11T07:43:11.465Z,14.90
2023-05-11T07:45:41.745Z,14.90
2023-05-11T07:48:11.017Z,15.10
2023-05-11T07:50:41.452Z,15.20
2023-05-11T07:53:12.289Z,15.30
2023-05-11T07:55:41.966Z,15.50
2023-05-11T07:58:11.236Z,15.60
2023-05-11T08:00:40.874Z,15.80
2023-05-11T08:03:10.152Z,15.90
2023-05-11T08:05:39.789Z,16.00
2023-05-11T08:08:09.117Z,15.90
2023-05-11T08:10:40.200Z,16.00
2023-05-11T08:13:09.153Z,16.10
2023-05-11T08:15:38.823Z,16.30
2023-05-11T08:18:08.718Z,16.30
2023-05-11T08:20:39.386Z,16.40
2023-05-11T08:23:08.616Z,16.50
2023-05-11T08:25:39.897Z,16.50
2023-05-11T08:28:09.301Z,16.60
2023-05-11T08:30:38.870Z,16.60
2023-05-11T08:33:25.895Z,16.70
2023-05-11T08:35:58.836Z,16.80
2023-05-11T08:38:28.132Z,16.60
2023-05-11T08:40:59.295Z,16.60
2023-05-11T08:43:29.420Z,16.70
2023-05-11T08:46:05.000Z,16.60
2023-05-11T08:48:34.984Z,16.70
2023-05-11T08:51:05.022Z,16.70
2023-05-11T08:53:34.256Z,16.90
2023-05-11T08:56:08.776Z,16.70
2023-05-11T08:58:38.883Z,16.90
2023-05-11T09:01:09.106Z,16.90
2023-05-11T09:03:38.616Z,16.90
2023-05-11T09:06:11.257Z,17.00
2023-05-11T09:08:41.275Z,17.20
2023-05-11T09:11:12.898Z,17.30
2023-05-11T09:13:42.276Z,17.20
2023-05-11T09:16:24.392Z,17.30
2023-05-11T09:19:03.942Z,17.30
2023-05-11T09:21:34.606Z,17.20
2023-05-11T09:24:04.941Z,17.20
2023-05-11T09:26:36.123Z,17.30
2023-05-11T09:29:05.647Z,17.40
2023-05-11T09:31:42.286Z,17.60
2023-05-11T09:34:14.107Z,17.60
2023-05-11T09:36:44.006Z,17.70
2023-05-11T09:39:16.186Z,17.50
2023-05-11T09:41:47.925Z,17.60
2023-05-11T09:44:17.989Z,17.70
2023-05-11T09:46:48.041Z,17.60
2023-05-11T09:49:17.304Z,17.70
2023-05-11T09:51:47.059Z,17.80
2023-05-11T09:54:20.456Z,17.90
2023-05-11T09:56:54.447Z,17.90
2023-05-11T09:59:39.787Z,17.90
2023-05-11T10:02:20.294Z,18.00
2023-05-11T10:04:49.981Z,17.90
2023-05-11T10:07:30.028Z,17.80
2023-05-11T10:10:01.852Z,17.90
2023-05-11T10:12:34.264Z,17.90
2023-05-11T10:15:06.028Z,17.90
2023-05-11T10:17:36.114Z,17.90
2023-05-11T10:20:07.069Z,17.90
2023-05-11T10:22:37.359Z,17.70
2023-05-11T10:25:07.578Z,17.80
2023-05-11T10:27:39.448Z,17.90
2023-05-11T10:30:12.073Z,18.10
2023-05-11T10:32:42.717Z,18.30
2023-05-11T10:35:12.404Z,18.40
2023-05-11T10:37:43.810Z,18.40
2023-05-11T10:40:13.476Z,18.60
2023-05-11T10:43:12.038Z,18.90
2023-05-11T10:45:53.382Z,19.00
2023-05-11T10:49:00.325Z,19.00
2023-05-11T10:51:54.812Z,19.30
2023-05-11T10:54:35.665Z,20.30
2023-05-11T10:57:22.553Z,20.50
2023-05-11T11:00:43.860Z,21.50
2023-05-11T11:03:14.504Z,22.20
2023-05-11T11:05:45.534Z,22.10
2023-05-11T11:08:15.081Z,21.90
2023-05-11T11:10:46.619Z,22.40
2023-05-11T11:13:17.165Z,23.10
2023-05-11T11:16:16.155Z,23.10
2023-05-11T11:18:45.804Z,22.50
2023-05-11T11:21:16.264Z,22.20
2023-05-11T11:23:49.397Z,22.20
2023-05-11T11:26:40.711Z,22.40
2023-05-11T11:29:11.841Z,22.60
2023-05-11T11:31:43.811Z,22.50
2023-05-11T11:34:36.717Z,22.00
2023-05-11T11:37:08.927Z,21.80
2023-05-11T11:40:13.954Z,21.80
2023-05-11T11:42:45.246Z,21.90
2023-05-11T11:45:34.495Z,21.60
2023-05-11T11:48:16.678Z,21.60
2023-05-11T11:50:48.392Z,22.20
2023-05-11T11:54:13.606Z,22.50
2023-05-11T11:56:46.851Z,22.90
2023-05-11T11:59:17.510Z,22.70
2023-05-11T12:01:46.941Z,22.80
2023-05-11T12:04:41.060Z,22.90
2023-05-11T12:07:11.688Z,22.80
2023-05-11T12:09:42.642Z,22.80
2023-05-11T12:12:13.060Z,22.90
2023-05-11T12:14:49.263Z,23.40
2023-05-11T12:17:26.241Z,24.20
2023-05-11T12:20:12.735Z,24.30
2023-05-11T12:22:42.695Z,24.00
2023-05-11T12:25:14.937Z,23.50
2023-05-11T12:27:52.574Z,23.50
2023-05-11T12:30:23.722Z,23.40
2023-05-11T12:35:28.959Z,23.80
2023-05-11T12:37:59.522Z,23.80
2023-05-11T12:40:29.421Z,23.80
2023-05-11T12:43:00.763Z,23.20
2023-05-11T12:45:30.821Z,22.90
2023-05-11T12:48:00.480Z,22.60
2023-05-11T12:50:31.850Z,23.00
2023-05-11T12:53:15.388Z,23.60
2023-05-11T12:55:45.497Z,24.10
2023-05-11T12:58:16.841Z,23.60
2023-05-11T13:00:54.679Z,23.60
2023-05-11T13:03:24.547Z,23.20
2023-05-11T13:06:05.457Z,23.70
2023-05-11T13:08:34.593Z,23.50
2023-05-11T13:11:20.759Z,23.90
2023-05-11T13:13:50.120Z,23.80
2023-05-11T13:16:27.545Z,23.60
2023-05-11T13:19:00.772Z,23.60
2023-05-11T13:21:33.764Z,24.10
2023-05-11T13:24:04.156Z,24.70
2023-05-11T13:26:34.399Z,25.00
2023-05-11T13:29:10.680Z,24.20
2023-05-11T13:31:47.351Z,24.00
2023-05-11T13:34:16.842Z,24.00
2023-05-11T13:36:48.668Z,24.20
2023-05-11T13:39:18.070Z,24.50
2023-05-11T13:41:48.561Z,23.80
2023-05-11T13:44:17.953Z,23.50
2023-05-11T13:46:47.946Z,23.80
2023-05-11T13:49:17.250Z,23.90
2023-05-11T13:51:48.307Z,24.00
2023-05-11T13:54:17.668Z,23.80
2023-05-11T13:56:47.605Z,23.90
2023-05-11T13:59:16.868Z,23.70
2023-05-11T14:01:46.800Z,23.30
2023-05-11T14:04:16.253Z,23.90
2023-05-11T14:06:47.619Z,24.00
2023-05-11T14:09:17.094Z,23.80
2023-05-11T14:11:46.897Z,24.10
2023-05-11T14:14:16.328Z,24.40
2023-05-11T14:16:46.333Z,25.00
2023-05-11T14:19:15.688Z,25.00
2023-05-11T14:21:45.467Z,25.00
2023-05-11T14:24:16.165Z,24.30
2023-05-11T14:26:45.845Z,24.60
2023-05-11T14:29:15.108Z,24.30
2023-05-11T14:31:46.686Z,24.80
2023-05-11T14:34:15.738Z,24.50
2023-05-11T14:36:45.513Z,24.50
2023-05-11T14:39:16.361Z,25.10
2023-05-11T14:41:46.085Z,24.80
2023-05-11T14:44:15.378Z,24.70
2023-05-11T14:46:45.546Z,25.30
2023-05-11T14:49:15.100Z,24.90
2023-05-11T14:51:44.744Z,24.40
2023-05-11T14:54:14.000Z,24.10
2023-05-11T14:56:46.520Z,23.80
2023-05-11T14:59:15.802Z,23.70
2023-05-11T15:01:45.968Z,24.10
2023-05-11T15:04:18.031Z,24.70
2023-05-11T15:06:47.713Z,24.70
2023-05-11T15:09:17.165Z,24.70
2023-05-11T15:11:48.244Z,24.80
2023-05-11T15:14:18.530Z,25.20
2023-05-11T15:16:48.941Z,25.40
2023-05-11T15:19:18.362Z,25.50
2023-05-11T15:21:48.205Z,25.00
2023-05-11T15:24:17.650Z,24.90
2023-05-11T15:26:48.775Z,24.40
2023-05-11T15:29:18.150Z,24.90
2023-05-11T15:31:48.238Z,24.70
2023-05-11T15:34:17.677Z,24.20
2023-05-11T15:36:49.132Z,24.70
2023-05-11T15:39:19.018Z,25.00
2023-05-11T15:41:50.380Z,25.20
2023-05-11T15:44:19.655Z,24.50
2023-05-11T15:46:49.864Z,24.30
2023-05-11T15:49:19.531Z,24.50
2023-05-11T15:51:49.469Z,24.30
2023-05-11T15:54:19.008Z,24.80
2023-05-11T15:56:50.430Z,24.60
2023-05-11T15:59:19.660Z,24.20
2023-05-11T16:01:49.764Z,23.60
2023-05-11T16:04:19.081Z,24.00
2023-05-11T16:06:48.680Z,24.00
2023-05-11T16:09:18.693Z,24.30
2023-05-11T16:11:50.679Z,24.70
2023-05-11T16:14:20.290Z,24.60
2023-05-11T16:16:50.102Z,23.80
2023-05-11T16:19:19.666Z,23.80
2023-05-11T16:21:49.432Z,23.80
2023-05-11T16:24:18.922Z,24.40
2023-05-11T16:26:50.015Z,24.20
2023-05-11T16:29:19.892Z,24.20
2023-05-11T16:31:49.873Z,23.90
2023-05-11T16:34:19.570Z,24.40
2023-05-11T16:36:49.669Z,23.30
2023-05-11T16:39:19.250Z,22.90
2023-05-11T16:41:50.362Z,22.80
2023-05-11T16:44:19.749Z,22.50
2023-05-11T16:46:49.960Z,22.70
2023-05-11T16:49:19.247Z,22.70
2023-05-11T16:51:49.028Z,22.50
2023-05-11T16:54:18.333Z,23.00
2023-05-11T16:56:47.966Z,23.50
2023-05-11T16:59:18.844Z,23.30
2023-05-11T17:01:49.799Z,22.90
2023-05-11T17:04:19.527Z,22.50
2023-05-11T17:06:49.200Z,22.70
2023-05-11T17:09:18.846Z,22.50
2023-05-11T17:11:48.436Z,22.00
2023-05-11T17:14:19.164Z,22.00
2023-05-11T17:16:48.811Z,21.30
2023-05-11T17:19:18.594Z,21.20
2023-05-11T17:21:48.312Z,21.20
2023-05-11T17:24:17.873Z,20.80
2023-05-11T17:26:48.737Z,20.40
2023-05-11T17:29:19.226Z,20.30
2023-05-11T17:31:52.042Z,20.10
2023-05-11T17:34:23.854Z,19.60
2023-05-11T17:36:57.129Z,19.50
2023-05-11T17:39:26.693Z,19.40
2023-05-11T17:41:56.520Z,19.30
2023-05-11T17:44:27.408Z,19.20
2023-05-11T17:46:57.310Z,19.10
2023-05-11T17:49:26.567Z,19.00
2023-05-11T17:51:56.180Z,18.90
2023-05-11T17:54:25.378Z,19.10
2023-05-11T17:56:55.027Z,19.00
2023-05-11T17:59:24.708Z,18.90
2023-05-11T18:01:56.248Z,18.80
2023-05-11T18:04:25.632Z,18.70
2023-05-11T18:06:55.380Z,18.30
2023-05-11T18:09:24.589Z,18.30
2023-05-11T18:11:54.388Z,18.10
2023-05-11T18:14:23.780Z,17.80
2023-05-11T18:16:54.265Z,17.50
2023-05-11T18:19:24.957Z,17.40
2023-05-11T18:21:54.628Z,17.20
2023-05-11T18:24:23.878Z,17.10
2023-05-11T18:26:54.058Z,16.90
2023-05-11T18:29:24.120Z,16.80
2023-05-11T18:31:53.962Z,16.60
2023-05-11T18:34:24.814Z,16.30
2023-05-11T18:36:54.760Z,16.30
2023-05-11T18:39:24.474Z,16.20
2023-05-11T18:41:54.904Z,16.10
2023-05-11T18:44:24.413Z,16.00
2023-05-11T18:46:54.434Z,15.80
2023-05-11T18:49:25.194Z,15.70
2023-05-11T18:51:56.088Z,15.60
2023-05-11T18:54:25.326Z,15.50
2023-05-11T18:56:55.256Z,15.40
2023-05-11T18:59:24.792Z,15.30
2023-05-11T19:01:54.497Z,15.20
2023-05-11T19:04:25.521Z,15.10
2023-05-11T19:06:55.950Z,15.10
2023-05-11T19:09:25.543Z,15.00
2023-05-11T19:11:56.448Z,14.80
2023-05-11T19:14:25.912Z,14.70
2023-05-11T19:16:55.665Z,14.80
2023-05-11T19:19:26.405Z,14.70
2023-05-11T19:21:56.581Z,14.60
2023-05-11T19:24:26.216Z,14.50
2023-05-11T19:27:06.745Z,14.50
2023-05-11T19:29:37.314Z,14.40
2023-05-11T19:32:07.735Z,14.30
2023-05-11T19:34:38.563Z,14.20
2023-05-11T19:37:09.334Z,14.10
2023-05-11T19:39:38.765Z,14.00
2023-05-11T19:42:08.680Z,14.00
2023-05-11T19:44:43.601Z,13.90
2023-05-11T19:47:13.186Z,13.80
2023-05-11T19:49:43.996Z,13.80
2023-05-11T19:52:13.614Z,13.70
2023-05-11T19:54:43.071Z,13.70
2023-05-11T19:57:13.102Z,13.60
2023-05-11T19:59:44.422Z,13.40
2023-05-11T20:02:14.506Z,13.40
2023-05-11T20:04:46.743Z,13.40
2023-05-11T20:07:16.895Z,13.30
2023-05-11T20:09:46.144Z,13.30
2023-05-11T20:12:15.863Z,13.20
2023-05-11T20:14:45.159Z,13.20
2023-05-11T20:17:14.902Z,13.10
2023-05-11T20:19:45.635Z,13.00
2023-05-11T20:22:15.902Z,12.90
2023-05-11T20:24:45.161Z,12.80
2023-05-11T20:27:14.755Z,12.80
2023-05-11T20:29:44.276Z,12.60
2023-05-11T20:32:14.071Z,12.40
2023-05-11T20:34:44.798Z,12.40
2023-05-11T20:37:14.853Z,12.30
2023-05-11T20:39:45.613Z,12.30
2023-05-11T20:42:15.275Z,12.20
2023-05-11T20:44:44.557Z,12.20
2023-05-11T20:47:14.268Z,12.20
2023-05-11T20:49:44.967Z,12.10
2023-05-11T20:52:15.517Z,12.10
2023-05-11T20:54:44.915Z,12.00
2023-05-11T20:57:14.871Z,11.90
2023-05-11T21:04:48.701Z,11.70
2023-05-11T21:07:18.818Z,11.70
2023-05-11T21:09:48.013Z,11.60
2023-05-11T21:12:17.615Z,11.60
2023-05-11T21:14:47.150Z,11.60
2023-05-11T21:17:17.390Z,11.50
2023-05-11T21:19:48.168Z,11.50
2023-05-11T21:22:17.800Z,11.20
2023-05-11T21:24:47.076Z,11.30
2023-05-11T21:27:17.969Z,11.30
2023-05-11T21:29:48.474Z,11.20
2023-05-11T21:32:18.675Z,11.20
2023-05-11T21:34:49.418Z,11.20
2023-05-11T21:37:21.316Z,11.20
2023-05-11T21:39:50.608Z,11.10
2023-05-11T21:42:20.292Z,11.00
2023-05-11T21:44:49.563Z,11.00
2023-05-11T21:47:19.225Z,11.10
2023-05-11T21:49:51.414Z,11.00
2023-05-11T21:52:21.940Z,11.10
2023-05-11T21:54:51.185Z,11.10
2023-05-11T21:57:22.292Z,11.10
2023-05-11T21:59:51.518Z,11.10
2023-05-11T22:02:21.303Z,11.00
2023-05-11T22:04:52.557Z,11.00
2023-05-11T22:07:22.302Z,10.90
2023-05-11T22:09:51.558Z,10.90
2023-05-11T22:12:21.531Z,10.90
2023-05-11T22:14:50.796Z,10.90
2023-05-11T22:17:20.904Z,10.70
2023-05-11T22:19:52.236Z,10.70
2023-05-11T22:22:21.845Z,10.80
2023-05-11T22:24:51.078Z,10.80
2023-05-11T22:27:20.702Z,10.80
2023-05-11T22:29:50.533Z,10.80
2023-05-11T22:32:22.027Z,10.60
2023-05-11T22:34:59.622Z,10.60
2023-05-11T22:37:29.362Z,10.50
2023-05-11T22:39:58.744Z,10.50
2023-05-11T22:42:31.038Z,10.40
2023-05-11T22:45:00.321Z,10.30
2023-05-11T22:47:30.341Z,10.20
2023-05-11T22:50:01.078Z,10.20
2023-05-11T22:52:30.866Z,10.20
2023-05-11T22:55:01.306Z,10.10
2023-05-11T22:57:31.057Z,10.20
2023-05-11T23:00:00.370Z,10.10
2023-05-11T23:02:30.490Z,10.00
2023-05-11T23:05:02.406Z,9.90
2023-05-11T23:07:32.488Z,9.90
2023-05-11T23:10:01.890Z,9.90
2023-05-11T23:12:31.599Z,9.80
2023-05-11T23:15:00.844Z,9.80
2023-05-11T23:17:30.669Z,9.80
2023-05-11T23:20:02.034Z,9.70
2023-05-11T23:22:31.736Z,9.60
2023-05-11T23:25:01.487Z,9.60
2023-05-11T23:30:00.586Z,9.60
2023-05-11T23:32:30.664Z,9.50
2023-05-11T23:35:01.590Z,9.40
2023-05-11T23:37:31.717Z,9.30
2023-05-11T23:40:01.107Z,9.30
2023-05-11T23:42:31.078Z,9.30
2023-05-11T23:45:04.863Z,9.30
2023-05-11T23:47:35.228Z,9.20
2023-05-11T23:50:07.663Z,9.30
2023-05-11T23:52:37.593Z,9.20
2023-05-11T23:55:08.062Z,9.10
2023-05-11T23:57:37.645Z,9.10
